createdAt,value
2018-09-25T00:00:47.515Z,101920.00
2018-09-25T00:03:21.864Z,101911.00
2018-09-25T00:05:56.322Z,101917.00
2018-09-25T00:08:30.601Z,101913.00
2018-09-25T00:11:05.025Z,101910.00
2018-09-25T00:13:39.425Z,101909.00
2018-09-25T00:16:13.782Z,101915.00
2018-09-25T00:18:48.311Z,101910.00
2018-09-25T00:21:23.024Z,101914.00
2018-09-25T00:23:57.336Z,101914.00
2018-09-25T00:26:31.573Z,101919.00
2018-09-25T00:29:05.912Z,101915.00
2018-09-25T00:31:40.214Z,101919.00
2018-09-25T00:34:14.708Z,101917.00
2018-09-25T00:36:49.468Z,101919.00
2018-09-25T00:39:23.885Z,101925.00
2018-09-25T00:41:58.330Z,101925.00
2018-09-25T00:44:32.701Z,101925.00
2018-09-25T00:47:07.015Z,101931.00
2018-09-25T00:49:41.385Z,101927.00
2018-09-25T00:52:15.844Z,101929.00
2018-09-25T00:54:50.092Z,101934.00
2018-09-25T00:57:24.612Z,101930.00
2018-09-25T00:59:58.874Z,101930.00
2018-09-25T01:02:33.168Z,101934.00
2018-09-25T01:05:07.545Z,101931.00
2018-09-25T01:07:41.982Z,101938.00
2018-09-25T01:10:16.324Z,101939.00
2018-09-25T01:12:50.577Z,101930.00
2018-09-25T01:15:25.045Z,101932.00
2018-09-25T01:17:59.384Z,101931.00
2018-09-25T01:20:33.768Z,101928.00
2018-09-25T01:23:08.316Z,101928.00
2018-09-25T01:25:42.615Z,101927.00
2018-09-25T01:28:16.987Z,101928.00
2018-09-25T01:30:51.505Z,101931.00
2018-09-25T01:33:26.400Z,101935.00
2018-09-25T01:36:00.980Z,101931.00
2018-09-25T01:38:35.451Z,101934.00
2018-09-25T01:41:09.916Z,101938.00
2018-09-25T01:43:44.200Z,101941.00
2018-09-25T01:46:18.682Z,101940.00
2018-09-25T01:48:53.741Z,101943.00
2018-09-25T01:51:28.234Z,101939.00
2018-09-25T01:54:02.642Z,101941.00
2018-09-25T01:56:37.118Z,101940.00
2018-09-25T01:59:11.623Z,101938.00
2018-09-25T02:01:46.056Z,101938.00
2018-09-25T02:04:20.349Z,101943.00
2018-09-25T02:06:54.882Z,101943.00
2018-09-25T02:09:29.281Z,101938.00
2018-09-25T02:12:03.678Z,101935.00
2018-09-25T02:14:38.416Z,101940.00
2018-09-25T02:17:12.967Z,101937.00
2018-09-25T02:19:51.364Z,101938.00
2018-09-25T02:22:26.368Z,101934.00
2018-09-25T02:25:00.815Z,101933.00
2018-09-25T02:27:35.299Z,101931.00
2018-09-25T02:30:09.761Z,101932.00
2018-09-25T02:32:44.188Z,101932.00
2018-09-25T02:35:18.622Z,101933.00
2018-09-25T02:37:53.208Z,101933.00
2018-09-25T02:40:27.726Z,101930.00
2018-09-25T02:43:02.176Z,101927.00
2018-09-25T02:45:36.574Z,101918.00
2018-09-25T02:48:11.102Z,101924.00
2018-09-25T02:50:45.429Z,101926.00
2018-09-25T02:53:19.778Z,101923.00
2018-09-25T02:55:54.257Z,101923.00
2018-09-25T02:58:28.621Z,101922.00
2018-09-25T03:01:03.089Z,101914.00
2018-09-25T03:03:37.536Z,101918.00
2018-09-25T03:06:12.151Z,101918.00
2018-09-25T03:08:47.219Z,101917.00
2018-09-25T03:11:21.620Z,101916.00
2018-09-25T03:13:55.941Z,101911.00
2018-09-25T03:16:30.339Z,101904.00
2018-09-25T03:19:04.737Z,101903.00
2018-09-25T03:21:39.933Z,101900.00
2018-09-25T03:24:14.388Z,101903.00
2018-09-25T03:26:48.915Z,101915.00
2018-09-25T03:29:23.377Z,101909.00
2018-09-25T03:31:57.885Z,101921.00
2018-09-25T03:34:32.309Z,101921.00
2018-09-25T03:37:06.737Z,101922.00
2018-09-25T03:39:41.632Z,101926.00
2018-09-25T03:42:17.361Z,101919.00
2018-09-25T03:44:51.608Z,101924.00
2018-09-25T03:47:27.856Z,101923.00
2018-09-25T03:50:02.096Z,101924.00
2018-09-25T03:52:36.540Z,101930.00
2018-09-25T03:55:10.964Z,101930.00
2018-09-25T03:57:45.524Z,101932.00
2018-09-25T04:00:19.925Z,101937.00
2018-09-25T04:02:55.130Z,101934.00
2018-09-25T04:05:29.617Z,101931.00
2018-09-25T04:08:04.053Z,101937.00
2018-09-25T04:10:38.486Z,101934.00
2018-09-25T04:13:12.969Z,101931.00
2018-09-25T04:15:47.401Z,101934.00
2018-09-25T04:18:21.856Z,101931.00
2018-09-25T04:20:56.367Z,101931.00
2018-09-25T04:23:31.508Z,101926.00
2018-09-25T04:26:05.933Z,101928.00
2018-09-25T04:28:40.460Z,101932.00
2018-09-25T04:31:15.279Z,101919.00
2018-09-25T04:33:50.250Z,101922.00
2018-09-25T04:36:25.132Z,101922.00
2018-09-25T04:38:59.713Z,101919.00
2018-09-25T04:41:34.606Z,101922.00
2018-09-25T04:44:09.515Z,101922.00
2018-09-25T04:46:44.478Z,101922.00
2018-09-25T04:49:19.356Z,101928.00
2018-09-25T04:51:54.260Z,101924.00
2018-09-25T04:54:29.596Z,101929.00
2018-09-25T04:57:04.284Z,101929.00
2018-09-25T04:59:39.117Z,101932.00
2018-09-25T05:02:14.237Z,101934.00
2018-09-25T05:04:48.941Z,101936.00
2018-09-25T05:07:23.732Z,101941.00
2018-09-25T05:09:59.128Z,101943.00
2018-09-25T05:12:33.496Z,101942.00
2018-09-25T05:15:08.343Z,101940.00
2018-09-25T05:17:43.496Z,101941.00
2018-09-25T05:20:18.364Z,101935.00
2018-09-25T05:22:54.506Z,101947.00
2018-09-25T05:25:29.049Z,101951.00
2018-09-25T05:28:03.517Z,101952.00
2018-09-25T05:30:38.009Z,101954.00
2018-09-25T05:33:12.715Z,101958.00
2018-09-25T05:35:48.074Z,101957.00
2018-09-25T05:38:22.806Z,101966.00
2018-09-25T05:40:57.479Z,101961.00
2018-09-25T05:43:32.012Z,101971.00
2018-09-25T05:46:06.594Z,101966.00
2018-09-25T05:48:41.484Z,101964.00
2018-09-25T05:51:16.354Z,101968.00
2018-09-25T05:53:51.145Z,101980.00
2018-09-25T05:56:26.260Z,101985.00
2018-09-25T05:59:00.805Z,101981.00
2018-09-25T06:01:35.346Z,101992.00
2018-09-25T06:04:10.169Z,101987.00
2018-09-25T06:06:44.992Z,101984.00
2018-09-25T06:09:19.770Z,101978.00
2018-09-25T06:11:54.196Z,101971.00
2018-09-25T06:14:28.754Z,101969.00
2018-09-25T06:17:03.254Z,101976.00
2018-09-25T06:19:38.216Z,101973.00
2018-09-25T06:22:15.410Z,101974.00
2018-09-25T06:24:49.967Z,101987.00
2018-09-25T06:27:24.736Z,101983.00
2018-09-25T06:29:59.290Z,101988.00
2018-09-25T06:32:34.018Z,101978.00
2018-09-25T06:35:09.017Z,101980.00
2018-09-25T06:37:44.459Z,101984.00
2018-09-25T06:40:18.930Z,101983.00
2018-09-25T06:42:53.803Z,101987.00
2018-09-25T06:45:28.240Z,101981.00
2018-09-25T06:48:02.621Z,101982.00
2018-09-25T06:50:36.944Z,101984.00
2018-09-25T06:53:12.460Z,101990.00
2018-09-25T06:55:47.233Z,101985.00
2018-09-25T06:58:22.095Z,101986.00
2018-09-25T07:00:56.884Z,101981.00
2018-09-25T07:03:31.394Z,101989.00
2018-09-25T07:06:05.975Z,101991.00
2018-09-25T07:08:40.449Z,101995.00
2018-09-25T07:11:14.983Z,101997.00
2018-09-25T07:13:49.682Z,101995.00
2018-09-25T07:16:24.320Z,102003.00
2018-09-25T07:18:58.903Z,102002.00
2018-09-25T07:21:33.564Z,102009.00
2018-09-25T07:24:08.213Z,102011.00
2018-09-25T07:26:43.109Z,102010.00
2018-09-25T07:29:17.716Z,102012.00
2018-09-25T07:31:52.601Z,102021.00
2018-09-25T07:34:27.364Z,102020.00
2018-09-25T07:37:02.069Z,102022.00
2018-09-25T07:39:36.749Z,102029.00
2018-09-25T07:42:11.485Z,102029.00
2018-09-25T07:44:46.485Z,102032.00
2018-09-25T07:47:21.549Z,102036.00
2018-09-25T07:49:56.082Z,102037.00
2018-09-25T07:52:30.729Z,102040.00
2018-09-25T07:55:05.202Z,102051.00
2018-09-25T07:57:40.141Z,102049.00
2018-09-25T08:00:14.755Z,102055.00
2018-09-25T08:02:49.537Z,102055.00
2018-09-25T08:05:24.330Z,102055.00
2018-09-25T08:07:58.844Z,102055.00
2018-09-25T08:10:33.528Z,102058.00
2018-09-25T08:13:08.328Z,102053.00
2018-09-25T08:15:43.458Z,102059.00
2018-09-25T08:18:18.281Z,102059.00
2018-09-25T08:20:53.231Z,102063.00
2018-09-25T08:23:27.999Z,102066.00
2018-09-25T08:26:02.545Z,102060.00
2018-09-25T08:28:37.267Z,102068.00
2018-09-25T08:31:12.273Z,102061.00
2018-09-25T08:33:47.389Z,102073.00
2018-09-25T08:36:22.688Z,102077.00
2018-09-25T08:38:57.269Z,102079.00
2018-09-25T08:41:32.665Z,102081.00
2018-09-25T08:44:07.390Z,102084.00
2018-09-25T08:46:42.115Z,102088.00
2018-09-25T08:49:18.343Z,102093.00
2018-09-25T08:51:54.613Z,102096.00
2018-09-25T08:54:29.914Z,102088.00
2018-09-25T08:57:04.677Z,102086.00
2018-09-25T08:59:39.624Z,102090.00
2018-09-25T09:02:14.445Z,102087.00
2018-09-25T09:04:49.614Z,102083.00
2018-09-25T09:07:24.457Z,102092.00
2018-09-25T09:09:58.969Z,102092.00
2018-09-25T09:12:33.973Z,102097.00
2018-09-25T09:15:11.763Z,102090.00
2018-09-25T09:17:47.032Z,102094.00
2018-09-25T09:20:22.047Z,102094.00
2018-09-25T09:22:57.069Z,102090.00
2018-09-25T09:25:32.067Z,102093.00
2018-09-25T09:28:06.623Z,102095.00
2018-09-25T09:30:41.233Z,102092.00
2018-09-25T09:33:17.500Z,102090.00
2018-09-25T09:35:52.458Z,102093.00
2018-09-25T09:38:27.975Z,102093.00
2018-09-25T09:41:02.688Z,102086.00
2018-09-25T09:43:37.348Z,102091.00
2018-09-25T09:46:11.798Z,102086.00
2018-09-25T09:48:47.266Z,102084.00
2018-09-25T09:51:22.536Z,102086.00
2018-09-25T09:53:57.292Z,102083.00
2018-09-25T09:56:32.416Z,102083.00
2018-09-25T09:59:07.320Z,102080.00
2018-09-25T10:01:42.590Z,102074.00
2018-09-25T10:04:18.546Z,102081.00
2018-09-25T10:06:53.806Z,102087.00
2018-09-25T10:09:28.486Z,102091.00
2018-09-25T10:12:03.589Z,102086.00
2018-09-25T10:14:38.250Z,102083.00
2018-09-25T10:17:13.336Z,102081.00
2018-09-25T10:19:49.006Z,102084.00
2018-09-25T10:22:24.237Z,102079.00
2018-09-25T10:24:59.081Z,102081.00
2018-09-25T10:27:34.159Z,102084.00
2018-09-25T10:30:09.782Z,102086.00
2018-09-25T10:32:45.002Z,102082.00
2018-09-25T10:35:19.742Z,102074.00
2018-09-25T10:37:54.869Z,102081.00
2018-09-25T10:40:30.201Z,102082.00
2018-09-25T10:43:05.824Z,102080.00
2018-09-25T10:45:40.562Z,102077.00
2018-09-25T10:48:15.653Z,102070.00
2018-09-25T10:50:50.961Z,102072.00
2018-09-25T10:53:25.965Z,102072.00
2018-09-25T10:56:01.054Z,102074.00
2018-09-25T10:58:37.510Z,102071.00
2018-09-25T11:01:12.693Z,102067.00
2018-09-25T11:03:47.509Z,102072.00
2018-09-25T11:06:22.958Z,102068.00
2018-09-25T11:08:58.395Z,102065.00
2018-09-25T11:11:33.428Z,102066.00
2018-09-25T11:14:08.184Z,102067.00
2018-09-25T11:16:43.157Z,102067.00
2018-09-25T11:19:18.533Z,102070.00
2018-09-25T11:21:53.374Z,102073.00
2018-09-25T11:24:28.248Z,102071.00
2018-09-25T11:27:02.888Z,102067.00
2018-09-25T11:29:38.658Z,102069.00
2018-09-25T11:32:13.614Z,102072.00
2018-09-25T11:34:48.761Z,102074.00
2018-09-25T11:37:25.423Z,102067.00
2018-09-25T11:40:01.392Z,102067.00
2018-09-25T11:42:36.177Z,102064.00
2018-09-25T11:45:11.499Z,102062.00
2018-09-25T11:47:46.275Z,102048.00
2018-09-25T11:50:21.136Z,102049.00
2018-09-25T11:52:56.632Z,102048.00
2018-09-25T11:55:32.450Z,102042.00
2018-09-25T12:00:57.952Z,102043.00
2018-09-25T12:03:33.324Z,102047.00
2018-09-25T12:06:08.233Z,102043.00
2018-09-25T12:08:43.953Z,102045.00
2018-09-25T12:11:18.780Z,102037.00
2018-09-25T12:13:53.795Z,102039.00
2018-09-25T12:16:28.538Z,102033.00
2018-09-25T12:19:03.069Z,102037.00
2018-09-25T12:21:37.973Z,102035.00
2018-09-25T12:24:13.187Z,102041.00
2018-09-25T12:26:48.106Z,102038.00
2018-09-25T12:29:22.823Z,102033.00
2018-09-25T12:31:57.707Z,102031.00
2018-09-25T12:34:32.765Z,102029.00
2018-09-25T12:37:07.254Z,102023.00
2018-09-25T12:39:42.150Z,102024.00
2018-09-25T12:42:16.806Z,102028.00
2018-09-25T12:44:51.377Z,102024.00
2018-09-25T12:47:25.966Z,102025.00
2018-09-25T12:50:00.572Z,102012.00
2018-09-25T12:52:35.236Z,102013.00
2018-09-25T12:55:10.203Z,102016.00
2018-09-25T12:57:45.616Z,102017.00
2018-09-25T13:00:20.216Z,102023.00
2018-09-25T13:02:54.892Z,102021.00
2018-09-25T13:05:29.685Z,102003.00
2018-09-25T13:08:04.533Z,102010.00
2018-09-25T13:10:39.514Z,102014.00
2018-09-25T13:13:14.252Z,102007.00
2018-09-25T13:15:49.041Z,102007.00
2018-09-25T13:18:23.564Z,102005.00
2018-09-25T13:20:58.163Z,102002.00
2018-09-25T13:23:33.019Z,101990.00
2018-09-25T13:26:07.705Z,101985.00
2018-09-25T13:28:42.591Z,101982.00
2018-09-25T13:31:17.606Z,101975.00
2018-09-25T13:33:53.578Z,101964.00
2018-09-25T13:36:28.612Z,101961.00
2018-09-25T13:39:03.136Z,101961.00
2018-09-25T13:41:37.940Z,101965.00
2018-09-25T13:44:12.623Z,101964.00
2018-09-25T13:46:47.601Z,101955.00
2018-09-25T13:49:21.924Z,101944.00
2018-09-25T13:51:56.773Z,101947.00
2018-09-25T13:54:31.687Z,101936.00
2018-09-25T13:57:06.167Z,101941.00
2018-09-25T13:59:42.417Z,101938.00
2018-09-25T14:02:17.483Z,101925.00
2018-09-25T14:04:52.417Z,101926.00
2018-09-25T14:07:27.481Z,101929.00
2018-09-25T14:10:02.202Z,101932.00
2018-09-25T14:12:36.668Z,101924.00
2018-09-25T14:15:12.786Z,101914.00
2018-09-25T14:17:48.794Z,101907.00
2018-09-25T14:20:23.594Z,101911.00
2018-09-25T14:22:58.033Z,101920.00
2018-09-25T14:25:32.975Z,101917.00
2018-09-25T14:28:07.499Z,101914.00
2018-09-25T14:30:41.998Z,101906.00
2018-09-25T14:33:16.603Z,101905.00
2018-09-25T14:35:51.269Z,101897.00
2018-09-25T14:38:26.098Z,101898.00
2018-09-25T14:41:02.713Z,101891.00
2018-09-25T14:43:37.494Z,101892.00
2018-09-25T14:46:12.134Z,101898.00
2018-09-25T14:48:47.070Z,101893.00
2018-09-25T14:51:21.852Z,101896.00
2018-09-25T14:53:56.710Z,101900.00
2018-09-25T14:56:31.451Z,101901.00
2018-09-25T14:59:06.097Z,101890.00
2018-09-25T15:01:40.886Z,101890.00
2018-09-25T15:04:15.699Z,101878.00
2018-09-25T15:06:50.594Z,101876.00
2018-09-25T15:09:25.251Z,101869.00
2018-09-25T15:11:59.836Z,101870.00
2018-09-25T15:14:34.334Z,101865.00
2018-09-25T15:17:08.985Z,101857.00
2018-09-25T15:19:43.872Z,101857.00
2018-09-25T15:22:22.094Z,101852.00
2018-09-25T15:24:56.199Z,101853.00
2018-09-25T15:27:31.142Z,101852.00
2018-09-25T15:30:07.772Z,101844.00
2018-09-25T15:32:42.659Z,101848.00
2018-09-25T15:35:17.564Z,101839.00
2018-09-25T15:37:52.715Z,101842.00
2018-09-25T15:40:27.496Z,101848.00
2018-09-25T15:43:02.234Z,101850.00
2018-09-25T15:45:37.311Z,101849.00
2018-09-25T15:48:12.013Z,101848.00
2018-09-25T15:50:47.417Z,101846.00
2018-09-25T15:53:23.688Z,101842.00
2018-09-25T15:55:58.876Z,101845.00
2018-09-25T15:58:34.070Z,101845.00
2018-09-25T16:01:08.739Z,101839.00
2018-09-25T16:03:43.666Z,101833.00
2018-09-25T16:06:18.457Z,101828.00
2018-09-25T16:08:53.731Z,101826.00
2018-09-25T16:11:28.182Z,101834.00
2018-09-25T16:14:02.744Z,101828.00
2018-09-25T16:16:37.564Z,101829.00
2018-09-25T16:19:12.435Z,101826.00
2018-09-25T16:21:47.262Z,101825.00
2018-09-25T16:24:21.729Z,101814.00
2018-09-25T16:26:56.525Z,101817.00
2018-09-25T16:29:31.005Z,101817.00
2018-09-25T16:32:05.644Z,101824.00
2018-09-25T16:34:40.248Z,101823.00
2018-09-25T16:37:14.819Z,101827.00
2018-09-25T16:39:49.899Z,101828.00
2018-09-25T16:42:24.569Z,101831.00
2018-09-25T16:44:59.267Z,101840.00
2018-09-25T16:47:33.974Z,101846.00
2018-09-25T16:50:08.414Z,101840.00
2018-09-25T16:52:42.883Z,101852.00
2018-09-25T16:55:18.103Z,101848.00
2018-09-25T16:57:53.612Z,101845.00
2018-09-25T17:00:28.705Z,101844.00
2018-09-25T17:03:03.340Z,101843.00
2018-09-25T17:05:38.038Z,101852.00
2018-09-25T17:08:12.406Z,101851.00
2018-09-25T17:10:47.930Z,101848.00
2018-09-25T17:13:22.948Z,101846.00
2018-09-25T17:15:57.389Z,101844.00
2018-09-25T17:18:31.997Z,101839.00
2018-09-25T17:21:08.208Z,101841.00
2018-09-25T17:23:42.872Z,101838.00
2018-09-25T17:26:18.312Z,101844.00
2018-09-25T17:28:53.254Z,101843.00
2018-09-25T17:31:28.002Z,101849.00
2018-09-25T17:34:02.665Z,101851.00
2018-09-25T17:36:37.333Z,101855.00
2018-09-25T17:39:14.872Z,101850.00
2018-09-25T17:41:49.846Z,101847.00
2018-09-25T17:44:25.497Z,101854.00
2018-09-25T17:47:00.116Z,101858.00
2018-09-25T17:49:35.025Z,101859.00
2018-09-25T17:52:10.240Z,101852.00
2018-09-25T17:54:45.928Z,101850.00
2018-09-25T17:57:21.637Z,101857.00
2018-09-25T17:59:57.059Z,101857.00
2018-09-25T18:02:32.592Z,101853.00
2018-09-25T18:05:09.181Z,101850.00
2018-09-25T18:07:46.738Z,101859.00
2018-09-25T18:10:21.940Z,101866.00
2018-09-25T18:12:57.875Z,101862.00
2018-09-25T18:15:32.910Z,101866.00
2018-09-25T18:18:07.839Z,101861.00
2018-09-25T18:20:42.550Z,101865.00
2018-09-25T18:23:18.590Z,101872.00
2018-09-25T18:25:53.551Z,101870.00
2018-09-25T18:28:28.683Z,101864.00
2018-09-25T18:31:03.447Z,101867.00
2018-09-25T18:33:38.343Z,101868.00
2018-09-25T18:36:14.319Z,101871.00
2018-09-25T18:38:49.055Z,101874.00
2018-09-25T18:41:23.830Z,101874.00
2018-09-25T18:43:58.332Z,101879.00
2018-09-25T18:46:32.896Z,101876.00
2018-09-25T18:49:07.332Z,101885.00
2018-09-25T18:51:42.235Z,101889.00
2018-09-25T18:54:16.558Z,101894.00
2018-09-25T18:56:51.110Z,101899.00
2018-09-25T18:59:25.852Z,101900.00
2018-09-25T19:04:41.761Z,101900.00
2018-09-25T19:07:16.548Z,101897.00
2018-09-25T19:09:50.985Z,101899.00
2018-09-25T19:12:25.698Z,101902.00
2018-09-25T19:15:00.184Z,101906.00
2018-09-25T19:17:34.680Z,101906.00
2018-09-25T19:20:09.570Z,101901.00
2018-09-25T19:22:44.307Z,101903.00
2018-09-25T19:25:18.690Z,101903.00
2018-09-25T19:27:53.602Z,101901.00
2018-09-25T19:30:28.068Z,101896.00
2018-09-25T19:33:02.548Z,101894.00
2018-09-25T19:35:37.297Z,101896.00
2018-09-25T19:38:11.769Z,101895.00
2018-09-25T19:40:46.596Z,101898.00
2018-09-25T19:43:21.090Z,101901.00
2018-09-25T19:45:55.505Z,101908.00
2018-09-25T19:48:29.819Z,101899.00
2018-09-25T19:51:04.169Z,101893.00
2018-09-25T19:53:38.765Z,101887.00
2018-09-25T19:56:13.280Z,101889.00
2018-09-25T19:58:47.898Z,101882.00
2018-09-25T20:01:22.238Z,101893.00
2018-09-25T20:03:56.633Z,101882.00
2018-09-25T20:06:31.036Z,101880.00
2018-09-25T20:09:05.457Z,101870.00
2018-09-25T20:11:39.783Z,101863.00
2018-09-25T20:14:14.420Z,101867.00
2018-09-25T20:16:49.078Z,101869.00
2018-09-25T20:19:26.354Z,101868.00
2018-09-25T20:22:05.372Z,101866.00
2018-09-25T20:24:40.892Z,101861.00
2018-09-25T20:27:18.216Z,101861.00
2018-09-25T20:29:54.754Z,101858.00
2018-09-25T20:32:29.854Z,101860.00
2018-09-25T20:35:08.390Z,101860.00
2018-09-25T20:37:43.831Z,101857.00
2018-09-25T20:40:20.383Z,101848.00
2018-09-25T20:42:55.618Z,101845.00
2018-09-25T20:45:34.784Z,101846.00
2018-09-25T20:48:11.586Z,101855.00
2018-09-25T20:50:48.995Z,101855.00
2018-09-25T20:53:26.641Z,101861.00
2018-09-25T20:56:01.482Z,101863.00
2018-09-25T20:58:36.319Z,101858.00
2018-09-25T21:01:17.029Z,101862.00
2018-09-25T21:03:52.363Z,101852.00
2018-09-25T21:06:27.536Z,101847.00
2018-09-25T21:09:02.973Z,101836.00
2018-09-25T21:11:37.909Z,101839.00
2018-09-25T21:14:13.863Z,101833.00
2018-09-25T21:16:48.572Z,101832.00
2018-09-25T21:19:23.482Z,101834.00
2018-09-25T21:21:59.887Z,101835.00
2018-09-25T21:24:35.587Z,101832.00
2018-09-25T21:27:14.280Z,101828.00
2018-09-25T21:29:50.621Z,101818.00
2018-09-25T21:32:25.884Z,101809.00
2018-09-25T21:35:04.177Z,101799.00
2018-09-25T21:37:40.909Z,101798.00
2018-09-25T21:40:17.930Z,101779.00
2018-09-25T21:42:55.329Z,101784.00
2018-09-25T21:45:31.385Z,101791.00
2018-09-25T21:48:08.443Z,101795.00
2018-09-25T21:50:46.581Z,101802.00
2018-09-25T21:53:24.572Z,101802.00
2018-09-25T21:56:05.498Z,101810.00
2018-09-25T21:58:42.266Z,101815.00
2018-09-25T22:01:20.228Z,101817.00
2018-09-25T22:03:56.888Z,101821.00
2018-09-25T22:06:33.616Z,101820.00
2018-09-25T22:09:14.180Z,101813.00
2018-09-25T22:11:50.774Z,101801.00
2018-09-25T22:14:27.605Z,101795.00
2018-09-25T22:17:04.111Z,101784.00
2018-09-25T22:19:39.823Z,101778.00
2018-09-25T22:22:14.965Z,101771.00
2018-09-25T22:24:51.613Z,101753.00
2018-09-25T22:27:26.127Z,101748.00
2018-09-25T22:30:01.817Z,101740.00
2018-09-25T22:32:38.241Z,101730.00
2018-09-25T22:35:13.543Z,101724.00
2018-09-25T22:37:51.501Z,101721.00
2018-09-25T22:40:27.956Z,101725.00
2018-09-25T22:43:02.623Z,101722.00
2018-09-25T22:45:39.477Z,101718.00
2018-09-25T22:48:18.405Z,101721.00
2018-09-25T22:50:55.950Z,101724.00
2018-09-25T22:53:31.140Z,101726.00
2018-09-25T22:56:09.384Z,101718.00
2018-09-25T22:58:44.778Z,101714.00
2018-09-25T23:01:22.734Z,101715.00
2018-09-25T23:04:01.163Z,101719.00
2018-09-25T23:06:40.667Z,101716.00
2018-09-25T23:09:17.769Z,101711.00
2018-09-25T23:11:54.475Z,101710.00
2018-09-25T23:14:30.227Z,101713.00
2018-09-25T23:17:11.274Z,101711.00
2018-09-25T23:19:51.566Z,101710.00
2018-09-25T23:22:29.751Z,101708.00
2018-09-25T23:25:05.592Z,101708.00
2018-09-25T23:27:42.406Z,101708.00
2018-09-25T23:30:19.670Z,101703.00
2018-09-25T23:32:58.174Z,101699.00
2018-09-25T23:35:33.336Z,101694.00
2018-09-25T23:38:10.942Z,101693.00
2018-09-25T23:40:47.360Z,101691.00
2018-09-25T23:43:28.244Z,101694.00
2018-09-25T23:46:07.175Z,101689.00
2018-09-25T23:48:44.754Z,101682.00
2018-09-25T23:51:33.645Z,101682.00
2018-09-25T23:54:10.638Z,101672.00
2018-09-25T23:57:18.395Z,101663.00
